Time;durP1;ratioP1;P1;durP2;ratioP2;P2;SDS_P1;SDS_P2;PMS_P1;PMS_P2;Temp;Humidity;BMP_temperature;BMP_pressure;BME280_temperature;BME280_humidity;BME280_pressure;Samples;Min_cycle;Max_cycle;Signal;HPM_P1;HPM_P2
2023/11/26 00:01:54;;;;;;;3.45;1.75;;;;;;;-1.44;100.00;100678.25;7371603;19;20220;-42
2023/11/26 00:04:27;;;;;;;4.88;1.83;;;;;;;-1.43;100.00;100682.56;7393151;19;20131;-44
2023/11/26 00:06:57;;;;;;;5.30;1.98;;;;;;;-1.44;100.00;100675.72;7372897;19;20217;-43
2023/11/26 00:09:26;;;;;;;3.95;1.73;;;;;;;-1.47;100.00;100685.56;7392249;19;20181;-45
2023/11/26 00:11:56;;;;;;;3.88;2.05;;;;;;;-1.47;100.00;100686.47;7371842;19;20190;-43
2023/11/26 00:14:26;;;;;;;17.55;4.85;;;;;;;-1.52;100.00;100682.63;7391156;19;20139;-44
2023/11/26 00:16:56;;;;;;;3.65;2.00;;;;;;;-1.51;100.00;100685.31;7370721;19;20194;-42
2023/11/26 00:19:29;;;;;;;40.88;13.15;;;;;;;-1.42;100.00;100679.28;7392212;19;20186;-42
2023/11/26 00:21:59;;;;;;;5.43;2.85;;;;;;;-1.55;100.00;100682.34;7371004;19;20613;-42
2023/11/26 00:24:28;;;;;;;3.35;1.55;;;;;;;-1.51;100.00;100690.38;7393451;19;20151;-43
2023/11/26 00:26:58;;;;;;;2.63;1.50;;;;;;;-1.50;100.00;100693.78;7370856;19;20194;-43
2023/11/26 00:29:28;;;;;;;4.25;1.90;;;;;;;-1.53;100.00;100693.53;7392562;19;20245;-45
2023/11/26 00:31:57;;;;;;;4.65;1.90;;;;;;;-1.58;100.00;100695.66;7370981;19;20198;-43
2023/11/26 00:34:29;;;;;;;5.45;1.88;;;;;;;-1.61;100.00;100700.41;7392349;19;20661;-44
2023/11/26 00:36:59;;;;;;;5.07;1.83;;;;;;;-1.62;100.00;100703.72;7370338;19;20678;-42
2023/11/26 00:39:29;;;;;;;3.50;1.77;;;;;;;-1.66;100.00;100709.22;7391663;19;20508;-44
2023/11/26 00:41:59;;;;;;;2.97;1.73;;;;;;;-1.65;100.00;100705.94;7368730;19;20196;-42
2023/11/26 00:44:28;;;;;;;5.97;1.70;;;;;;;-1.66;100.00;100709.22;7392010;19;20141;-43
2023/11/26 00:46:58;;;;;;;3.15;1.65;;;;;;;-1.65;100.00;100716.06;7369563;19;20204;-42
2023/11/26 00:49:30;;;;;;;3.42;1.58;;;;;;;-1.67;100.00;100718.47;7391625;19;20182;-44
2023/11/26 00:52:00;;;;;;;2.50;1.70;;;;;;;-1.68;100.00;100714.19;7370233;19;20212;-43
2023/11/26 00:54:29;;;;;;;4.45;1.45;;;;;;;-1.64;100.00;100717.88;7392660;19;20663;-42
2023/11/26 00:56:59;;;;;;;2.33;1.20;;;;;;;-1.66;100.00;100715.19;7370732;19;20708;-43
2023/11/26 00:59:28;;;;;;;3.90;1.70;;;;;;;-1.64;100.00;100728.88;7390996;19;20184;-44
2023/11/26 01:01:58;;;;;;;6.10;1.65;;;;;;;-1.53;100.00;100732.34;7369001;19;20205;-42
2023/11/26 01:04:30;;;;;;;2.88;1.70;;;;;;;-1.61;100.00;100740.00;7390961;19;20162;-43
2023/11/26 01:07:00;;;;;;;7.35;1.90;;;;;;;-1.70;100.00;100737.56;7368954;19;20202;-43
2023/11/26 01:09:30;;;;;;;4.20;1.55;;;;;;;-1.61;100.00;100745.97;7391204;19;20876;-43
2023/11/26 01:11:59;;;;;;;6.25;2.80;;;;;;;-1.56;100.00;100746.38;7368400;19;20265;-42
2023/11/26 01:14:29;;;;;;;2.63;1.70;;;;;;;-1.65;100.00;100756.56;7390209;19;20210;-43
2023/11/26 01:16:59;;;;;;;4.50;1.73;;;;;;;-1.70;100.00;100751.09;7368661;19;20204;-43
2023/11/26 01:19:31;;;;;;;3.55;1.50;;;;;;;-1.79;100.00;100753.66;7389895;19;20181;-45
2023/11/26 01:22:01;;;;;;;4.47;1.83;;;;;;;-1.64;100.00;100755.81;7368659;19;20198;-43
2023/11/26 01:24:30;;;;;;;4.60;1.67;;;;;;;-1.59;100.00;100762.16;7391065;19;20146;-43
2023/11/26 01:27:00;;;;;;;6.00;2.30;;;;;;;-1.64;100.00;100764.28;7368930;19;20688;-44
2023/11/26 01:29:30;;;;;;;7.10;2.40;;;;;;;-1.72;100.00;100764.34;7389450;19;20179;-42
2023/11/26 01:31:59;;;;;;;6.70;3.20;;;;;;;-1.71;100.00;100763.59;7369538;19;20194;-43
2023/11/26 01:34:31;;;;;;;2.67;1.40;;;;;;;-1.82;100.00;100771.09;7390581;19;20142;-42
2023/11/26 01:37:01;;;;;;;5.28;1.80;;;;;;;-1.69;100.00;100764.63;7369293;19;20576;-43
2023/11/26 01:39:31;;;;;;;5.45;2.25;;;;;;;-1.70;100.00;100767.91;7389891;19;20185;-42
2023/11/26 01:42:00;;;;;;;3.35;1.73;;;;;;;-1.92;100.00;100765.94;7367566;19;20719;-42
2023/11/26 01:44:30;;;;;;;5.95;2.15;;;;;;;-1.89;100.00;100771.28;7389945;19;20502;-43
2023/11/26 01:47:01;;;;;;;7.38;1.90;;;;;;;-1.91;100.00;100778.72;7366798;19;20201;-43
2023/11/26 01:49:34;;;;;;;3.10;1.52;;;;;;;-1.99;100.00;100779.69;7389527;19;20174;-42
2023/11/26 01:52:05;;;;;;;3.47;1.80;;;;;;;-2.01;100.00;100782.81;7367846;19;20198;-41
2023/11/26 01:54:38;;;;;;;6.32;2.63;;;;;;;-1.83;100.00;100771.88;7390205;19;20146;-42
2023/11/26 01:57:08;;;;;;;3.97;1.75;;;;;;;-1.80;100.00;100777.19;7368180;19;20215;-43
2023/11/26 01:59:38;;;;;;;4.80;1.90;;;;;;;-1.97;100.00;100774.75;7389871;19;20179;-41
2023/11/26 02:02:07;;;;;;;3.58;2.05;;;;;;;-2.19;100.00;100760.13;7368026;19;20194;-41
2023/11/26 02:04:40;;;;;;;13.75;4.35;;;;;;;-2.06;100.00;100767.19;7390083;19;20161;-41
2023/11/26 02:07:09;;;;;;;16.75;5.65;;;;;;;-2.14;100.00;100771.56;7367412;19;20239;-41
2023/11/26 02:09:40;;;;;;;10.10;3.75;;;;;;;-1.99;100.00;100773.72;7388646;19;20586;-41
2023/11/26 02:12:11;;;;;;;10.60;3.65;;;;;;;-2.10;100.00;100776.13;7367733;19;20677;-42
2023/11/26 02:14:40;;;;;;;9.35;4.10;;;;;;;-2.04;100.00;100776.69;7388239;19;20142;-41
2023/11/26 02:17:10;;;;;;;4.80;2.08;;;;;;;-2.12;100.00;100776.72;7364871;19;20196;-42
2023/11/26 02:19:43;;;;;;;7.25;1.98;;;;;;;-2.29;100.00;100767.59;7393339;19;20166;-42
2023/11/26 02:22:13;;;;;;;6.18;1.70;;;;;;;-2.38;100.00;100787.84;7374674;19;20186;-42
2023/11/26 02:24:47;;;;;;;3.78;1.95;;;;;;;-2.36;100.00;100781.31;7396407;19;20505;-41
2023/11/26 02:27:17;;;;;;;3.88;1.80;;;;;;;-2.34;100.00;100778.19;7373936;19;20197;-43
2023/11/26 02:29:46;;;;;;;6.57;2.35;;;;;;;-2.40;100.00;100775.06;7395461;19;20178;-41
2023/11/26 02:32:16;;;;;;;20.25;6.75;;;;;;;-2.49;100.00;100785.19;7373929;19;20345;-41
2023/11/26 02:34:46;;;;;;;7.38;3.00;;;;;;;-2.52;100.00;100778.97;7396310;19;20494;-40
2023/11/26 02:37:16;;;;;;;6.13;2.78;;;;;;;-2.65;100.00;100776.91;7375119;19;20707;-41
2023/11/26 02:39:48;;;;;;;7.60;3.42;;;;;;;-2.57;100.00;100773.47;7395930;19;20175;-42
2023/11/26 02:42:18;;;;;;;16.95;4.60;;;;;;;-2.51;100.00;100766.47;7375332;19;20701;-41
2023/11/26 02:44:47;;;;;;;6.00;3.03;;;;;;;-2.60;100.00;100771.53;7396290;19;20143;-40
2023/11/26 02:47:17;;;;;;;2.50;1.40;;;;;;;-2.71;100.00;100772.16;7372462;19;20270;-42
2023/11/26 02:49:47;;;;;;;8.63;2.70;;;;;;;-2.69;100.00;100760.56;7386714;19;20566;-41
2023/11/26 02:52:17;;;;;;;2.78;1.63;;;;;;;-2.64;100.00;100764.44;7372520;19;20558;-41
2023/11/26 02:54:49;;;;;;;7.75;2.25;;;;;;;-2.55;100.00;100768.56;7395574;19;20142;-41
2023/11/26 02:57:19;;;;;;;7.78;2.92;;;;;;;-2.64;100.00;100763.53;7373829;19;20218;-41
2023/11/26 02:59:49;;;;;;;5.50;2.10;;;;;;;-2.66;100.00;100760.88;7394996;19;20183;-41
2023/11/26 03:02:18;;;;;;;4.10;1.95;;;;;;;-2.55;100.00;100758.44;7373216;19;20187;-40
2023/11/26 03:04:53;;;;;;;3.55;1.58;;;;;;;-2.55;100.00;100745.81;7394004;19;20143;-42
2023/11/26 03:07:27;;;;;;;8.27;3.72;;;;;;;-2.52;100.00;100751.19;7372915;19;20211;-44
2023/11/26 03:13:07;;;;;;;11.15;3.53;;;;;;;-2.60;100.00;100765.59;7371684;19;20656;-41
2023/11/26 03:15:39;;;;;;;9.02;1.95;;;;;;;-2.54;100.00;100770.34;7394003;19;20170;-42
2023/11/26 03:18:12;;;;;;;4.25;1.63;;;;;;;-2.51;100.00;100771.50;7372901;19;20190;-42
2023/11/26 03:20:43;;;;;;;3.80;1.50;;;;;;;-2.61;100.00;100773.94;7392459;19;20626;-41
2023/11/26 03:23:13;;;;;;;5.63;2.30;;;;;;;-2.63;100.00;100775.41;7372486;19;20190;-42
2023/11/26 03:25:46;;;;;;;2.75;1.33;;;;;;;-2.72;100.00;100781.38;7395504;19;20498;-41
2023/11/26 03:28:15;;;;;;;5.15;1.38;;;;;;;-2.65;100.00;100776.91;7369241;19;20198;-41
2023/11/26 03:30:46;;;;;;;3.13;1.58;;;;;;;-2.71;100.00;100780.63;7393883;19;20723;-42
2023/11/26 03:33:17;;;;;;;5.70;2.70;;;;;;;-2.75;100.00;100776.03;7372181;19;20201;-44
2023/11/26 03:35:47;;;;;;;5.50;2.00;;;;;;;-2.71;100.00;100782.28;7395344;19;20160;-41
2023/11/26 03:38:17;;;;;;;5.60;2.25;;;;;;;-2.66;100.00;100777.66;7371923;19;20654;-41
2023/11/26 03:40:49;;;;;;;9.15;2.00;;;;;;;-2.66;100.00;100780.19;7395170;19;20182;-41
2023/11/26 03:43:19;;;;;;;4.90;2.03;;;;;;;-2.68;100.00;100784.22;7372269;19;20190;-41
2023/11/26 03:45:49;;;;;;;4.53;1.42;;;;;;;-2.70;100.00;100773.94;7395185;19;20143;-41
2023/11/26 03:48:19;;;;;;;10.93;2.97;;;;;;;-2.54;100.00;100773.75;7370957;19;20294;-43
2023/11/26 03:50:48;;;;;;;10.50;3.50;;;;;;;-2.51;100.00;100781.63;7394230;19;20198;-41
2023/11/26 03:53:18;;;;;;;2.85;1.45;;;;;;;-2.61;100.00;100787.44;7370916;19;20658;-41
2023/11/26 03:55:51;;;;;;;2.55;1.20;;;;;;;-2.63;100.00;100781.34;7394601;19;20171;-42
2023/11/26 03:58:20;;;;;;;3.45;2.00;;;;;;;-2.69;100.00;100779.88;7371582;19;20195;-41
2023/11/26 04:00:50;;;;;;;4.30;2.03;;;;;;;-2.68;100.00;100787.59;7393834;19;20646;-43
2023/11/26 04:03:20;;;;;;;16.08;5.15;;;;;;;-2.49;100.00;100786.81;7371061;19;20686;-43
2023/11/26 04:05:50;;;;;;;9.20;3.10;;;;;;;-2.44;100.00;100788.16;7394743;19;20156;-41
2023/11/26 04:08:19;;;;;;;7.60;2.53;;;;;;;-2.50;100.00;100797.69;7370878;19;20194;-41
2023/11/26 04:10:52;;;;;;;5.90;2.42;;;;;;;-2.63;100.00;100791.47;7393493;19;20238;-41
2023/11/26 04:13:24;;;;;;;14.25;6.20;;;;;;;-2.32;100.00;100791.84;7372296;19;20211;-41
2023/11/26 04:15:58;;;;;;;6.63;2.38;;;;;;;-2.44;100.00;100788.16;7394323;19;20218;-42
2023/11/26 04:18:28;;;;;;;5.68;2.80;;;;;;;-2.55;100.00;100788.78;7371390;19;20185;-42
2023/11/26 04:20:58;;;;;;;5.47;2.53;;;;;;;-2.38;100.00;100788.72;7395083;19;20167;-43
2023/11/26 04:23:27;;;;;;;24.40;5.60;;;;;;;-2.23;100.00;100788.38;7371773;19;20273;-44
2023/11/26 04:26:00;;;;;;;20.13;6.50;;;;;;;-2.22;100.00;100782.56;7394053;19;20210;-41
2023/11/26 04:28:30;;;;;;;6.97;3.30;;;;;;;-2.33;100.00;100786.63;7370970;19;20222;-42
2023/11/26 04:31:00;;;;;;;4.82;2.17;;;;;;;-2.56;100.00;100792.97;7393816;19;20175;-41
2023/11/26 04:33:29;;;;;;;7.13;2.92;;;;;;;-2.63;100.00;100801.56;7369128;19;20201;-41
2023/11/26 04:35:59;;;;;;;4.45;1.90;;;;;;;-2.66;100.00;100796.25;7396017;19;20181;-42
2023/11/26 04:38:29;;;;;;;6.90;2.58;;;;;;;-2.67;100.00;100799.47;7369726;19;20253;-42
2023/11/26 04:41:01;;;;;;;4.00;2.00;;;;;;;-2.74;100.00;100797.13;7391626;19;20234;-42
2023/11/26 04:43:31;;;;;;;6.55;2.70;;;;;;;-2.83;100.00;100796.25;7370769;19;20265;-42
2023/11/26 04:46:01;;;;;;;3.42;1.70;;;;;;;-2.76;100.00;100794.44;7393341;19;20139;-41
2023/11/26 04:48:33;;;;;;;6.30;2.85;;;;;;;-2.81;100.00;100799.81;7367783;19;20263;-42
2023/11/26 04:51:03;;;;;;;3.85;2.20;;;;;;;-2.72;100.00;100795.66;7393167;19;20241;-41
2023/11/26 04:53:32;;;;;;;3.95;2.20;;;;;;;-2.83;100.00;100798.78;7368804;19;20265;-42
2023/11/26 04:56:05;;;;;;;7.93;2.45;;;;;;;-2.89;100.00;100799.06;7393319;19;20627;-42
2023/11/26 04:58:36;;;;;;;10.77;2.15;;;;;;;-2.82;100.00;100803.09;7370024;19;20201;-41
2023/11/26 05:01:06;;;;;;;5.45;2.75;;;;;;;-2.75;100.00;100801.31;7392416;19;20696;-41
2023/11/26 05:03:35;;;;;;;7.22;3.20;;;;;;;-2.78;100.00;100790.03;7369687;19;20198;-42
2023/11/26 05:06:05;;;;;;;7.85;3.70;;;;;;;-2.86;100.00;100797.72;7392639;19;20214;-42
2023/11/26 05:08:35;;;;;;;6.43;3.45;;;;;;;-2.94;100.00;100802.78;7370389;19;20201;-42
2023/11/26 05:11:08;;;;;;;9.50;3.60;;;;;;;-2.92;100.00;100809.75;7392227;19;20246;-41
2023/11/26 05:13:38;;;;;;;11.15;4.00;;;;;;;-2.85;100.00;100814.69;7369369;19;20262;-42
2023/11/26 05:16:08;;;;;;;7.07;3.35;;;;;;;-2.83;100.00;100813.94;7394804;19;20221;-41
2023/11/26 05:18:38;;;;;;;7.07;3.45;;;;;;;-2.87;100.00;100822.84;7370563;19;20194;-41
2023/11/26 05:21:09;;;;;;;9.07;4.28;;;;;;;-2.82;100.00;100833.41;7392601;19;20183;-42
2023/11/26 05:23:38;;;;;;;8.52;4.10;;;;;;;-2.79;100.00;100828.63;7370768;19;20193;-42
2023/11/26 05:26:10;;;;;;;7.18;3.70;;;;;;;-2.70;100.00;100824.47;7394793;19;20150;-42
2023/11/26 05:28:40;;;;;;;19.00;5.30;;;;;;;-2.66;100.00;100824.03;7370505;19;20190;-41
2023/11/26 05:31:10;;;;;;;6.35;2.85;;;;;;;-2.63;100.00;100810.78;7391887;19;20171;-43
2023/11/26 05:33:39;;;;;;;10.68;4.05;;;;;;;-2.11;100.00;100801.31;7369219;19;20532;-41
2023/11/26 05:36:10;;;;;;;20.67;7.93;;;;;;;-2.04;100.00;100801.13;7392231;19;20213;-43
2023/11/26 05:38:40;;;;;;;7.22;3.45;;;;;;;-2.31;100.00;100807.88;7369612;19;20203;-42
2023/11/26 05:41:12;;;;;;;4.20;2.20;;;;;;;-2.52;100.00;100814.34;7386699;19;20226;-41
2023/11/26 05:43:41;;;;;;;7.88;3.22;;;;;;;-2.26;100.00;100819.31;7368831;19;20219;-45
2023/11/26 05:46:11;;;;;;;13.05;4.65;;;;;;;-2.22;100.00;100816.34;7389798;19;20162;-43
2023/11/26 05:48:41;;;;;;;6.95;3.33;;;;;;;-2.14;100.00;100801.00;7369287;19;20178;-43
2023/11/26 05:51:11;;;;;;;7.15;3.10;;;;;;;-2.29;100.00;100792.88;7394725;19;20241;-43
2023/11/26 05:53:42;;;;;;;13.55;4.95;;;;;;;-2.24;100.00;100779.03;7376554;19;20209;-41
2023/11/26 05:56:14;;;;;;;7.57;3.40;;;;;;;-2.18;100.00;100782.13;7398678;19;20147;-42
2023/11/26 05:58:44;;;;;;;7.80;3.15;;;;;;;-2.19;100.00;100791.34;7377395;19;20552;-42
2023/11/26 06:01:13;;;;;;;5.47;2.67;;;;;;;-2.15;100.00;100786.56;7383715;19;20135;-43
2023/11/26 06:03:45;;;;;;;9.65;2.72;;;;;;;-2.29;100.00;100788.72;7399216;19;20139;-43
2023/11/26 06:06:14;;;;;;;6.70;3.05;;;;;;;-2.28;100.00;100792.13;7376202;19;20147;-42
2023/11/26 06:08:44;;;;;;;5.15;2.65;;;;;;;-2.12;100.00;100797.88;7396410;19;20139;-43
2023/11/26 06:11:17;;;;;;;8.23;3.50;;;;;;;-2.05;100.00;100795.16;7379872;19;20214;-42
2023/11/26 06:13:46;;;;;;;8.23;3.00;;;;;;;-1.94;100.00;100795.28;7397969;19;20138;-42
2023/11/26 06:16:16;;;;;;;9.90;3.50;;;;;;;-2.09;100.00;100794.75;7373209;19;20138;-41
2023/11/26 06:18:46;;;;;;;5.18;2.35;;;;;;;-2.08;100.00;100806.63;7396147;19;20218;-41
2023/11/26 06:21:16;;;;;;;4.53;2.50;;;;;;;-2.20;100.00;100808.91;7375366;19;20147;-42
2023/11/26 06:23:46;;;;;;;4.85;2.60;;;;;;;-2.17;100.00;100814.25;7390098;19;20143;-42
2023/11/26 06:26:20;;;;;;;4.38;2.60;;;;;;;-2.14;100.00;100818.69;7375693;19;20139;-40
2023/11/26 06:28:50;;;;;;;5.95;2.95;;;;;;;-2.16;100.00;100828.66;7396311;19;20157;-40
2023/11/26 06:31:22;;;;;;;5.10;2.70;;;;;;;-2.14;100.00;100822.13;7374315;19;20155;-41
2023/11/26 06:33:53;;;;;;;8.55;2.40;;;;;;;-2.06;100.00;100808.56;7395959;19;20139;-41
2023/11/26 06:36:23;;;;;;;8.25;2.72;;;;;;;-2.05;100.00;100805.28;7375634;19;20195;-43
2023/11/26 06:38:53;;;;;;;6.60;3.30;;;;;;;-1.99;100.00;100811.66;7395270;19;20619;-45
2023/11/26 06:41:27;;;;;;;4.30;2.10;;;;;;;-1.94;100.00;100803.72;7377569;19;20157;-41
2023/11/26 06:43:58;;;;;;;5.78;3.20;;;;;;;-1.86;100.00;100785.88;7393959;19;20147;-44
2023/11/26 06:46:29;;;;;;;7.38;4.07;;;;;;;-1.85;100.00;100785.13;7375218;19;20153;-42
2023/11/26 06:48:59;;;;;;;7.93;3.45;;;;;;;-1.95;100.00;100776.66;7395364;19;20138;-41
2023/11/26 06:51:29;;;;;;;6.63;3.03;;;;;;;-1.99;100.00;100758.53;7373219;19;20199;-42
2023/11/26 06:53:58;;;;;;;5.63;2.90;;;;;;;-2.18;100.00;100764.44;7395740;19;20138;-41
2023/11/26 06:56:30;;;;;;;6.00;2.75;;;;;;;-2.23;100.00;100765.63;7373133;19;20142;-41
2023/11/26 06:59:00;;;;;;;10.65;2.08;;;;;;;-2.38;100.00;100760.03;7394631;19;20143;-41
2023/11/26 07:01:31;;;;;;;8.05;3.28;;;;;;;-2.26;100.00;100772.94;7372258;19;20153;-46
2023/11/26 07:04:00;;;;;;;4.85;2.40;;;;;;;-2.21;100.00;100769.22;7395732;19;20134;-42
2023/11/26 07:06:31;;;;;;;3.65;2.05;;;;;;;-2.21;100.00;100769.22;7373863;19;20167;-41
2023/11/26 07:09:01;;;;;;;7.35;2.95;;;;;;;-2.13;100.00;100772.44;7394692;19;20611;-42
2023/11/26 07:11:33;;;;;;;5.55;2.45;;;;;;;-2.09;100.00;100777.94;7373247;19;20159;-42
2023/11/26 07:14:02;;;;;;;9.35;2.55;;;;;;;-1.99;100.00;100779.69;7396607;19;20143;-41
2023/11/26 07:16:32;;;;;;;4.78;2.20;;;;;;;-1.97;100.00;100778.16;7373986;19;20195;-43
2023/11/26 07:19:03;;;;;;;6.57;1.90;;;;;;;-1.94;100.00;100793.63;7394621;19;20226;-42
2023/11/26 07:21:32;;;;;;;4.35;2.15;;;;;;;-1.88;100.00;100790.78;7372616;19;20207;-41
2023/11/26 07:24:02;;;;;;;3.63;2.10;;;;;;;-1.84;100.00;100789.41;7394951;19;20147;-41
2023/11/26 07:26:34;;;;;;;22.55;6.60;;;;;;;-1.67;100.00;100788.44;7372431;19;20163;-41
2023/11/26 07:29:04;;;;;;;4.07;2.15;;;;;;;-1.58;100.00;100786.75;7393777;19;20151;-41
2023/11/26 07:31:34;;;;;;;5.95;2.20;;;;;;;-1.49;100.00;100789.19;7372263;19;20197;-42
2023/11/26 07:34:03;;;;;;;4.93;2.75;;;;;;;-1.52;100.00;100791.47;7393385;19;20510;-42
2023/11/26 07:36:33;;;;;;;4.40;1.83;;;;;;;-1.50;100.00;100793.38;7374112;19;20303;-42
2023/11/26 07:39:03;;;;;;;3.42;1.85;;;;;;;-1.42;100.00;100794.09;7393805;19;20643;-41
2023/11/26 07:41:36;;;;;;;4.30;2.10;;;;;;;-1.50;100.00;100800.09;7372311;19;20210;-41
2023/11/26 07:44:09;;;;;;;6.55;2.30;;;;;;;-1.50;100.00;100802.63;7394543;19;20154;-41
2023/11/26 07:46:39;;;;;;;3.47;1.95;;;;;;;-1.44;100.00;100799.78;7370029;19;20194;-42
2023/11/26 07:49:09;;;;;;;4.07;2.80;;;;;;;-1.39;100.00;100791.81;7393615;19;20546;-41
2023/11/26 07:51:39;;;;;;;4.63;2.67;;;;;;;-1.42;100.00;100790.66;7373310;19;20233;-42
2023/11/26 07:54:09;;;;;;;6.20;2.03;;;;;;;-1.35;100.00;100805.66;7394074;19;20149;-42
2023/11/26 07:56:54;;;;;;;6.93;2.38;;;;;;;-1.30;100.00;100804.44;7371466;19;20227;-43
2023/11/26 07:59:23;;;;;;;6.28;2.10;;;;;;;-1.27;100.00;100802.16;7395805;19;20256;-43
2023/11/26 08:01:53;;;;;;;5.97;2.25;;;;;;;-1.23;100.00;100803.34;7370700;19;20202;-43
2023/11/26 08:04:26;;;;;;;4.75;2.40;;;;;;;-1.23;100.00;100796.63;7394764;19;20146;-42
2023/11/26 08:06:56;;;;;;;6.07;2.38;;;;;;;-1.20;100.00;100792.56;7371132;19;20194;-41
2023/11/26 08:09:26;;;;;;;7.80;2.30;;;;;;;-1.18;100.00;100791.09;7394125;19;20635;-42
2023/11/26 08:12:02;;;;;;;7.10;2.58;;;;;;;-1.38;100.00;100785.13;7370748;19;20230;-42
2023/11/26 08:14:31;;;;;;;3.47;2.03;;;;;;;-1.39;100.00;100785.88;7390951;19;20146;-41
2023/11/26 08:17:04;;;;;;;5.40;2.85;;;;;;;-1.33;100.00;100790.59;7371131;19;20265;-42
2023/11/26 08:19:35;;;;;;;4.57;2.45;;;;;;;-1.31;100.00;100790.00;7392354;19;20182;-42
2023/11/26 08:22:06;;;;;;;8.50;3.25;;;;;;;-1.32;100.00;100782.25;7371949;19;20194;-41
2023/11/26 08:24:39;;;;;;;6.15;3.22;;;;;;;-1.28;100.00;100786.84;7392882;19;20616;-41
2023/11/26 08:27:13;;;;;;;9.18;3.65;;;;;;;-1.19;100.00;100787.66;7371168;19;20666;-42
2023/11/26 08:29:43;;;;;;;6.07;2.95;;;;;;;-1.16;100.00;100779.44;7393149;19;20197;-41
2023/11/26 08:32:13;;;;;;;5.40;2.45;;;;;;;-1.15;100.00;100776.16;7370743;19;20222;-43
2023/11/26 08:34:44;;;;;;;7.75;2.70;;;;;;;-1.16;100.00;100774.38;7393156;19;20154;-43
2023/11/26 08:37:15;;;;;;;6.45;2.88;;;;;;;-1.34;100.00;100778.69;7371331;19;20622;-41
2023/11/26 08:39:54;;;;;;;8.35;3.95;;;;;;;-1.24;100.00;100784.72;7392939;19;20233;-42
2023/11/26 08:42:27;;;;;;;7.60;3.30;;;;;;;-1.06;100.00;100792.19;7371035;19;20209;-42
2023/11/26 08:44:57;;;;;;;6.30;2.63;;;;;;;-0.91;100.00;100781.63;7393745;19;20143;-43
2023/11/26 08:47:28;;;;;;;4.40;2.80;;;;;;;-0.79;100.00;100784.34;7369514;19;20190;-42
2023/11/26 08:49:58;;;;;;;7.07;2.42;;;;;;;-0.81;100.00;100779.16;7392813;19;20175;-42
2023/11/26 08:52:30;;;;;;;9.60;2.67;;;;;;;-0.80;100.00;100780.94;7368591;19;20186;-41
2023/11/26 08:55:00;;;;;;;3.97;2.25;;;;;;;-0.85;100.00;100788.13;7393350;19;20206;-42
2023/11/26 08:57:32;;;;;;;10.48;4.10;;;;;;;-0.77;100.00;100786.25;7368175;19;20216;-40
2023/11/26 09:00:02;;;;;;;9.23;3.70;;;;;;;-0.69;100.00;100785.31;7389199;19;20714;-41
2023/11/26 09:02:32;;;;;;;5.18;2.95;;;;;;;-0.75;100.00;100784.75;7369065;19;20218;-40
2023/11/26 09:05:03;;;;;;;5.45;2.80;;;;;;;-0.75;100.00;100786.41;7391812;19;20186;-41
2023/11/26 09:07:33;;;;;;;8.95;2.95;;;;;;;-0.74;100.00;100783.09;7368670;19;20186;-40
2023/11/26 09:10:02;;;;;;;5.68;2.97;;;;;;;-0.68;100.00;100781.09;7391719;19;20182;-42
2023/11/26 09:12:34;;;;;;;7.10;3.03;;;;;;;-0.63;100.00;100781.50;7366548;19;20214;-41
2023/11/26 09:15:07;;;;;;;7.47;3.60;;;;;;;-0.66;100.00;100783.78;7392260;19;20182;-41
2023/11/26 09:17:37;;;;;;;9.07;3.42;;;;;;;-0.60;100.00;100791.91;7367442;19;20777;-42
2023/11/26 09:20:11;;;;;;;9.55;4.18;;;;;;;-0.64;100.00;100788.22;7392464;19;20182;-40
2023/11/26 09:22:41;;;;;;;10.70;4.72;;;;;;;-0.63;100.00;100784.03;7368565;19;20190;-41
2023/11/26 09:25:13;;;;;;;12.40;3.97;;;;;;;-0.64;100.00;100793.28;7396312;19;20515;-40
2023/11/26 09:27:45;;;;;;;8.43;3.60;;;;;;;-0.63;100.00;100791.63;7375483;19;20198;-41
2023/11/26 09:30:15;;;;;;;7.25;3.78;;;;;;;-0.65;100.00;100786.47;7399485;19;20194;-40
2023/11/26 09:32:45;;;;;;;9.10;3.92;;;;;;;-0.59;100.00;100786.09;7375381;19;20197;-41
2023/11/26 09:35:15;;;;;;;7.13;4.28;;;;;;;-0.61;100.00;100777.47;7398877;19;20143;-40
2023/11/26 09:37:45;;;;;;;7.57;4.30;;;;;;;-0.66;100.00;100776.19;7374832;19;20190;-41
2023/11/26 09:40:14;;;;;;;7.57;4.50;;;;;;;-0.68;100.00;100782.00;7398970;19;20548;-41
2023/11/26 09:42:52;;;;;;;11.48;5.47;;;;;;;-0.62;100.00;100783.31;7374606;19;20194;-42
2023/11/26 09:45:21;;;;;;;11.48;6.43;;;;;;;-0.69;100.00;100780.22;7399064;19;20138;-41
2023/11/26 09:47:52;;;;;;;13.02;5.40;;;;;;;-0.64;100.00;100777.19;7373531;19;20208;-40
2023/11/26 09:50:22;;;;;;;10.35;5.13;;;;;;;-0.60;100.00;100784.31;7398589;19;20166;-40
2023/11/26 09:52:53;;;;;;;14.48;5.75;;;;;;;-0.52;100.00;100788.41;7375494;19;20208;-42
2023/11/26 09:55:23;;;;;;;6.90;4.78;;;;;;;-0.52;100.00;100792.59;7398751;19;20226;-40
2023/11/26 09:57:55;;;;;;;10.93;5.82;;;;;;;-0.48;100.00;100793.00;7375441;19;20269;-40
2023/11/26 10:00:25;;;;;;;7.30;4.90;;;;;;;-0.50;100.00;100797.03;7397878;19;20174;-40
2023/11/26 10:03:02;;;;;;;10.48;5.68;;;;;;;-0.50;100.00;100794.50;7374544;19;20667;-40
2023/11/26 10:05:33;;;;;;;15.60;6.57;;;;;;;-0.50;100.00;100796.13;7397294;19;20156;-40
2023/11/26 10:08:02;;;;;;;12.02;6.82;;;;;;;-0.47;100.00;100797.28;7374574;19;20198;-40
2023/11/26 10:10:32;;;;;;;14.27;6.88;;;;;;;-0.44;100.00;100800.09;7395821;19;20174;-39
2023/11/26 10:13:08;;;;;;;12.82;7.43;;;;;;;-0.46;100.00;100791.47;7374613;19;20190;-41
2023/11/26 10:15:43;;;;;;;11.13;6.30;;;;;;;-0.43;100.00;100788.31;7396164;19;20246;-39
2023/11/26 10:18:14;;;;;;;15.80;7.63;;;;;;;-0.45;100.00;100783.09;7374412;19;20298;-39
2023/11/26 10:20:50;;;;;;;16.60;7.47;;;;;;;-0.49;100.00;100777.63;7396340;19;20178;-39
2023/11/26 10:23:35;;;;;;;14.73;7.32;;;;;;;-0.51;100.00;100777.50;7375093;19;20673;-39
2023/11/26 10:26:05;;;;;;;12.55;5.82;;;;;;;-0.53;100.00;100773.06;7400346;19;20146;-39
2023/11/26 10:28:37;;;;;;;10.73;5.75;;;;;;;-0.58;100.00;100773.56;7375058;19;20194;-40
2023/11/26 10:31:08;;;;;;;12.55;5.85;;;;;;;-0.48;100.00;100761.66;7396983;19;20534;-39
2023/11/26 10:33:38;;;;;;;16.30;7.40;;;;;;;-0.39;100.00;100759.03;7375593;19;20178;-39
2023/11/26 10:36:09;;;;;;;12.02;5.70;;;;;;;-0.38;100.00;100761.72;7396536;19;20143;-40
2023/11/26 10:38:38;;;;;;;14.45;5.82;;;;;;;-0.38;100.00;100753.19;7375754;19;20261;-41
2023/11/26 10:41:08;;;;;;;7.80;4.32;;;;;;;-0.54;100.00;100754.44;7391484;19;20175;-39
2023/11/26 10:43:40;;;;;;;10.77;6.03;;;;;;;-0.49;100.00;100748.13;7371700;19;20209;-40
2023/11/26 10:46:20;;;;;;;8.83;4.70;;;;;;;-0.33;100.00;100752.84;7372752;19;20616;-39
2023/11/26 10:48:57;;;;;;;11.05;5.30;;;;;;;-0.29;100.00;100751.47;7395896;19;20403;-38
2023/11/26 10:51:28;;;;;;;7.27;4.57;;;;;;;-0.18;100.00;100744.75;7374586;19;20130;-40
2023/11/26 10:54:03;;;;;;;10.45;4.50;;;;;;;-0.11;100.00;100749.59;7393852;19;20416;-39
2023/11/26 10:56:38;;;;;;;10.40;4.80;;;;;;;-0.02;100.00;100763.06;7367081;19;20206;-39
2023/11/26 10:59:12;;;;;;;6.75;4.03;;;;;;;0.03;100.00;100753.28;7392741;19;20149;-40
2023/11/26 11:01:42;;;;;;;11.95;5.13;;;;;;;0.07;100.00;100768.03;7367936;19;20265;-39
2023/11/26 11:04:14;;;;;;;9.50;4.77;;;;;;;0.07;100.00;100768.03;7382959;19;20159;-39
2023/11/26 11:06:45;;;;;;;5.90;4.30;;;;;;;0.11;100.00;100771.72;7373605;19;20462;-40
2023/11/26 11:09:22;;;;;;;7.53;4.63;;;;;;;0.12;100.00;100769.28;7394509;19;20458;-40
2023/11/26 11:11:58;;;;;;;24.63;4.80;;;;;;;0.12;100.00;100776.91;7372277;19;20411;-40
2023/11/26 11:14:30;;;;;;;9.60;5.10;;;;;;;0.21;100.00;100766.63;7396870;19;20401;-39
2023/11/26 11:17:00;;;;;;;10.13;5.30;;;;;;;0.23;100.00;100769.31;7366754;19;20402;-42
2023/11/26 11:19:52;;;;;;;10.77;5.33;;;;;;;0.19;100.00;100772.34;7395241;19;20472;-40
2023/11/26 11:22:22;;;;;;;11.73;5.20;;;;;;;0.23;100.00;100770.22;7369813;19;20399;-41
2023/11/26 11:24:52;;;;;;;9.83;5.67;;;;;;;0.17;100.00;100761.19;7395228;19;20471;-40
2023/11/26 11:27:21;;;;;;;8.93;4.87;;;;;;;0.20;100.00;100766.53;7373638;19;20495;-40
2023/11/26 11:29:54;;;;;;;9.27;4.80;;;;;;;0.23;100.00;100759.16;7395375;19;20510;-44
2023/11/26 11:32:24;;;;;;;11.53;5.83;;;;;;;0.18;100.00;100757.88;7372640;19;20893;-39
2023/11/26 11:35:28;;;;;;;9.03;5.03;;;;;;;0.12;100.00;100761.66;7395314;19;20478;-40
2023/11/26 11:38:16;;;;;;;15.43;7.23;;;;;;;0.06;100.00;100756.06;7370067;19;20417;-39